TFM - Tactical Decision Aid (Experimental) INFO Settings
 
 

ID: Runway Winds: CIG/VIS Threshold: METAR Board: Map:

kiad - Washington-Dulles Intl

Updated at: 0622 UTC 22 Oct 2014
Latest TAF at: 0538 UTC 22 Oct 2014

TAF Board

Time0606Z22/07Z22/08Z22/09Z22/10Z22/11Z22/12Z22/13Z22/14Z22/15Z22/16Z22/17Z22/18Z22/19Z
TypeOBSPRVLPRVLPRVLPRVLPRVLPRVLPRVLPRVLPRVLPRVLPRVLPRVLPRVL
VIS10>6>6555>6>6>6>6>6>6>6>6
CIG2660602525251515151515151515
CoverBKNOVCOVCOVCOVCOVCOVCOVCOVCOVCOVCOVCOVCOVC
FltCatMVFRVFRVFRMVFRMVFRMVFRMVFRMVFRMVFRMVFRMVFRMVFRMVFRMVFR
WX--VCSHVCSH-RA-RA-RA----------------
WDir330340340350350350350350350350350350350350
WSpd710101111111616161616161616
WGst------2020202424242424242424
TAF
KIAD 220538Z 2206/2312 34010KT P6SM VCSH OVC060
  FM220900 35011G20KT 5SM -RA OVC025
  FM221200 35016G24KT P6SM SCT008 OVC015
  FM222000 34018G27KT P6SM BKN030
  FM230000 33019KT P6SM BKN040
  FM230800 32016G28KT P6SM BKN030


METAR
KIAD 220606Z 33007KT 10SM BKN026 BKN065 11/09 A2990 RMK AO2
KIAD 220552Z 33007KT 10SM SCT026 BKN065 11/09 A2990 RMK AO2 SLP122 60030 T01060094 10122 20106 56012

TAF/METAR Board Legend

Potential Impact
  None Marginal Slight Moderate High
Visibility (sm) > ≤X≤ <
Ceiling (100 ft) > ≤X≤ <
Wind Speed (kt) <10 10≤X<20 20≤X<30 ≥30
Wind Gust (kt) <15 15≤X<25 25≤X<35 ≥35
Weather No Wx Reported VCTS -TS,-FZRA TS,FZRA +TS,+FZRA


Notice: Undefined index: kiad in /caws/site/new_awc/application/modules/trafficflowmgmt/controllers/TdaController.php on line 173

Notice: Undefined index: kiad in /caws/site/new_awc/application/modules/trafficflowmgmt/controllers/TdaController.php on line 174